Wetterdaten: Woche 08.03.10 - 14.03.10 (KW10)
Datum Zeit Temperatur Luftfeuchte Luftdruck Niederschlag Windrichtung Wind
08.03.2010 00:00 -6,9 C 77 % 1025,1 hPa 0,0 l/m O-NO 18,0 km/h (3 Bft)
08.03.2010 01:00 -7,4 C 78 % 1025,2 hPa 0,0 l/m O-NO 17,3 km/h (3 Bft)
08.03.2010 02:00 -7,8 C 80 % 1024,7 hPa 0,0 l/m O-NO 13,7 km/h (3 Bft)
08.03.2010 03:00 -8,1 C 81 % 1024,1 hPa 0,0 l/m NO 13,8 km/h (3 Bft)
08.03.2010 04:00 -9,1 C 84 % 1023,8 hPa 0,0 l/m NO 13,4 km/h (3 Bft)
08.03.2010 05:00 -9,7 C 85 % 1023,6 hPa 0,0 l/m NO 14,9 km/h (3 Bft)
08.03.2010 06:00 -10,4 C 87 % 1023,5 hPa 0,0 l/m N 12,1 km/h (2 Bft)
08.03.2010 07:00 -10,8 C 88 % 1023,5 hPa 0,0 l/m N 10,1 km/h (2 Bft)
08.03.2010 13:00 -10,8 C 88 % 1021,0 hPa 0,0 l/m O 27,5 km/h (4 Bft)
08.03.2010 14:00 -10,8 C 88 % 1020,4 hPa 0,0 l/m O 29,8 km/h (5 Bft)
08.03.2010 15:00 -10,8 C 88 % 1020,4 hPa 0,0 l/m O-NO 28,0 km/h (4 Bft)
08.03.2010 16:00 -10,8 C 88 % 1020,4 hPa 0,0 l/m O 24,3 km/h (4 Bft)
08.03.2010 17:00 -9,5 C 83 % 1020,3 hPa 0,0 l/m O-SO 22,6 km/h (4 Bft)
08.03.2010 18:00 -3,6 C 59 % 1020,7 hPa 0,0 l/m O 10,1 km/h (2 Bft)
08.03.2010 19:00 -4,3 C 66 % 1020,9 hPa 0,0 l/m N 0,0 km/h (0 Bft)
08.03.2010 20:00 -5,0 C 73 % 1020,6 hPa 0,0 l/m O-NO 14,2 km/h (3 Bft)
08.03.2010 21:00 -5,7 C 76 % 1020,1 hPa 0,0 l/m O-NO 17,1 km/h (3 Bft)
08.03.2010 22:00 -6,0 C 76 % 1020,1 hPa 0,0 l/m O-NO 16,5 km/h (3 Bft)
08.03.2010 23:00 -6,7 C 79 % 1019,7 hPa 0,0 l/m O-NO 14,4 km/h (3 Bft)
09.03.2010 00:00 -7,3 C 81 % 1019,2 hPa 0,0 l/m O-NO 13,8 km/h (3 Bft)
09.03.2010 01:00 -7,7 C 83 % 1018,9 hPa 0,0 l/m O-NO 15,2 km/h (3 Bft)
09.03.2010 02:00 -8,0 C 84 % 1018,8 hPa 0,0 l/m O-NO 13,6 km/h (3 Bft)
09.03.2010 03:00 -8,4 C 85 % 1018,6 hPa 0,0 l/m O-NO 16,1 km/h (3 Bft)
09.03.2010 04:00 -8,7 C 86 % 1018,4 hPa 0,0 l/m N-NO 16,0 km/h (3 Bft)
09.03.2010 05:00 -8,7 C 85 % 1018,3 hPa 0,0 l/m NO 18,2 km/h (3 Bft)
09.03.2010 06:00 -8,4 C 84 % 1018,6 hPa 0,0 l/m O-NO 23,6 km/h (4 Bft)
09.03.2010 07:00 -8,2 C 84 % 1018,7 hPa 0,0 l/m NO 30,9 km/h (5 Bft)
09.03.2010 08:00 -7,9 C 83 % 1019,2 hPa 0,0 l/m O-NO 26,3 km/h (4 Bft)
09.03.2010 09:00 -7,0 C 80 % 1019,2 hPa 0,0 l/m O-NO 26,8 km/h (4 Bft)
09.03.2010 10:00 -6,5 C 78 % 1019,0 hPa 0,0 l/m NO 28,0 km/h (4 Bft)
09.03.2010 11:00 -5,2 C 71 % 1019,0 hPa 0,0 l/m O-NO 32,6 km/h (5 Bft)
09.03.2010 12:00 -4,6 C 69 % 1018,9 hPa 0,0 l/m O-NO 37,0 km/h (5 Bft)
09.03.2010 13:00 -3,5 C 65 % 1018,6 hPa 0,0 l/m O-SO 39,8 km/h (6 Bft)
09.03.2010 14:00 -2,7 C 62 % 1018,3 hPa 0,0 l/m O 38,2 km/h (5 Bft)
09.03.2010 15:00 -2,3 C 57 % 1018,0 hPa 0,0 l/m O-NO 38,2 km/h (5 Bft)
09.03.2010 16:00 -2,2 C 54 % 1018,3 hPa 0,0 l/m O-NO 37,8 km/h (5 Bft)
09.03.2010 17:00 -2,2 C 55 % 1018,9 hPa 0,0 l/m O-NO 30,2 km/h (5 Bft)
09.03.2010 18:00 -2,5 C 55 % 1018,9 hPa 0,0 l/m O-NO 27,5 km/h (4 Bft)
09.03.2010 19:00 -2,6 C 55 % 1018,9 hPa 0,0 l/m O-NO 32,2 km/h (5 Bft)
09.03.2010 20:00 -3,0 C 58 % 1018,8 hPa 0,0 l/m O-NO 29,9 km/h (5 Bft)
09.03.2010 21:00 -3,3 C 59 % 1018,8 hPa 0,0 l/m O-NO 26,0 km/h (4 Bft)
09.03.2010 22:00 -3,6 C 59 % 1018,6 hPa 0,0 l/m NO 27,3 km/h (4 Bft)
09.03.2010 23:00 -4,0 C 59 % 1018,0 hPa 0,0 l/m NO 24,9 km/h (4 Bft)
10.03.2010 00:00 -4,1 C 57 % 1017,4 hPa 0,0 l/m NO 28,8 km/h (5 Bft)
10.03.2010 01:00 -4,0 C 55 % 1016,9 hPa 0,0 l/m O-NO 30,2 km/h (5 Bft)
10.03.2010 02:00 -4,2 C 56 % 1016,4 hPa 0,0 l/m O 32,9 km/h (5 Bft)
10.03.2010 03:00 -4,5 C 57 % 1015,9 hPa 0,0 l/m O-SO 31,0 km/h (5 Bft)
10.03.2010 04:00 -4,8 C 58 % 1015,4 hPa 0,0 l/m O-NO 29,9 km/h (5 Bft)
10.03.2010 05:00 -5,0 C 60 % 1015,3 hPa 0,0 l/m O 25,6 km/h (4 Bft)
10.03.2010 06:00 -5,2 C 63 % 1015,1 hPa 0,0 l/m O-NO 26,7 km/h (4 Bft)
10.03.2010 07:00 -5,4 C 64 % 1015,0 hPa 0,0 l/m O-NO 23,2 km/h (4 Bft)
10.03.2010 08:00 -5,1 C 64 % 1015,1 hPa 0,0 l/m NO 25,6 km/h (4 Bft)
10.03.2010 09:00 -4,6 C 63 % 1014,9 hPa 0,0 l/m O-NO 23,1 km/h (4 Bft)
10.03.2010 10:00 -3,9 C 61 % 1015,0 hPa 0,0 l/m NO 18,6 km/h (3 Bft)
10.03.2010 11:00 -2,4 C 57 % 1014,6 hPa 0,0 l/m NO 23,6 km/h (4 Bft)
10.03.2010 12:00 -0,5 C 51 % 1014,3 hPa 0,0 l/m O 32,5 km/h (5 Bft)
10.03.2010 13:00 1,2 C 48 % 1013,3 hPa 0,0 l/m O-SO 29,0 km/h (5 Bft)
10.03.2010 14:00 1,9 C 48 % 1012,9 hPa 0,0 l/m O 28,7 km/h (4 Bft)
10.03.2010 15:00 2,0 C 50 % 1012,8 hPa 0,0 l/m O-NO 25,9 km/h (4 Bft)
10.03.2010 16:00 0,8 C 53 % 1012,9 hPa 0,0 l/m NO 21,8 km/h (4 Bft)
10.03.2010 17:00 0,2 C 55 % 1013,3 hPa 0,0 l/m NO 17,7 km/h (3 Bft)
10.03.2010 18:00 -0,2 C 59 % 1013,3 hPa 0,0 l/m NO 16,6 km/h (3 Bft)
10.03.2010 19:00 -0,3 C 61 % 1013,3 hPa 0,0 l/m O-NO 18,1 km/h (3 Bft)
10.03.2010 20:00 -0,7 C 64 % 1013,1 hPa 0,0 l/m NO 19,0 km/h (3 Bft)
10.03.2010 21:00 -1,2 C 66 % 1012,9 hPa 0,0 l/m NO 18,6 km/h (3 Bft)
10.03.2010 22:00 -1,6 C 71 % 1012,8 hPa 0,0 l/m NO 17,3 km/h (3 Bft)
10.03.2010 23:00 -2,5 C 85 % 1012,6 hPa 0,2 l/m O-NO 16,4 km/h (3 Bft)
11.03.2010 00:00 -2,9 C 88 % 1012,4 hPa 0,6 l/m O-NO 11,3 km/h (2 Bft)
11.03.2010 01:00 -3,2 C 91 % 1012,5 hPa 0,8 l/m N-NO 10,8 km/h (2 Bft)
11.03.2010 02:00 -3,4 C 91 % 1012,4 hPa 0,6 l/m N-NO 9,1 km/h (2 Bft)
11.03.2010 03:00 -3,3 C 91 % 1012,1 hPa 0,0 l/m NO 10,6 km/h (2 Bft)
11.03.2010 04:00 -3,4 C 91 % 1012,1 hPa 0,2 l/m N-NO 11,2 km/h (2 Bft)
11.03.2010 05:00 -3,4 C 91 % 1012,2 hPa 0,0 l/m N-NO 8,2 km/h (2 Bft)
11.03.2010 06:00 -3,5 C 90 % 1012,4 hPa 0,0 l/m NO 11,6 km/h (2 Bft)
11.03.2010 07:00 -3,5 C 91 % 1012,7 hPa 0,0 l/m NO 8,3 km/h (2 Bft)
11.03.2010 08:00 -3,2 C 91 % 1013,0 hPa 0,2 l/m NO 8,4 km/h (2 Bft)
11.03.2010 09:00 -2,7 C 89 % 1013,5 hPa 0,4 l/m O-NO 7,0 km/h (2 Bft)
11.03.2010 10:00 -2,1 C 89 % 1013,5 hPa 0,4 l/m NO 5,2 km/h (1 Bft)
11.03.2010 11:00 -1,8 C 88 % 1013,5 hPa 0,4 l/m N-NO 6,8 km/h (2 Bft)
11.03.2010 12:00 -1,3 C 87 % 1013,6 hPa 0,2 l/m N-NO 6,4 km/h (2 Bft)
11.03.2010 13:00 -1,1 C 86 % 1013,4 hPa 0,4 l/m N-NO 6,1 km/h (2 Bft)
11.03.2010 14:00 -1,1 C 87 % 1013,2 hPa 0,4 l/m NO 4,7 km/h (1 Bft)
11.03.2010 15:00 -0,9 C 87 % 1013,3 hPa 0,2 l/m NO 4,7 km/h (1 Bft)
11.03.2010 16:00 -0,6 C 85 % 1013,5 hPa 0,0 l/m NO 3,7 km/h (1 Bft)
11.03.2010 17:00 -1,1 C 86 % 1014,1 hPa 0,2 l/m NO 2,5 km/h (1 Bft)
11.03.2010 18:00 -1,9 C 89 % 1014,8 hPa 0,2 l/m N 1,9 km/h (1 Bft)
11.03.2010 19:00 -2,3 C 92 % 1015,3 hPa 0,0 l/m N-NO 2,3 km/h (1 Bft)
11.03.2010 20:00 -2,6 C 92 % 1015,8 hPa 0,2 l/m N-NW 4,3 km/h (1 Bft)
11.03.2010 21:00 -2,9 C 92 % 1016,1 hPa 0,0 l/m N 1,9 km/h (1 Bft)
11.03.2010 22:00 -3,1 C 92 % 1016,3 hPa 0,0 l/m N 0,0 km/h (0 Bft)
11.03.2010 23:00 -3,4 C 92 % 1016,3 hPa 0,0 l/m N 0,0 km/h (0 Bft)
12.03.2010 00:00 -3,8 C 92 % 1016,6 hPa 0,0 l/m N 0,0 km/h (0 Bft)
12.03.2010 01:00 -3,8 C 92 % 1016,7 hPa 0,0 l/m N 0,0 km/h (0 Bft)
12.03.2010 02:00 -4,0 C 92 % 1016,9 hPa 0,0 l/m N 0,0 km/h (0 Bft)
12.03.2010 03:00 -4,3 C 93 % 1017,0 hPa 0,0 l/m N 0,5 km/h (0 Bft)
12.03.2010 04:00 -4,3 C 93 % 1017,3 hPa 0,0 l/m N 0,7 km/h (0 Bft)
12.03.2010 05:00 -4,7 C 93 % 1017,6 hPa 0,0 l/m N 0,0 km/h (0 Bft)
12.03.2010 06:00 -6,5 C 89 % 1018,0 hPa 0,0 l/m N 0,1 km/h (0 Bft)
12.03.2010 07:00 -7,4 C 90 % 1018,7 hPa 0,0 l/m N 1,1 km/h (0 Bft)
12.03.2010 08:00 -7,1 C 92 % 1019,3 hPa 0,0 l/m N-NW 1,3 km/h (1 Bft)
12.03.2010 09:00 -4,5 C 91 % 1019,8 hPa 0,0 l/m N-NW 3,5 km/h (1 Bft)
12.03.2010 10:00 -1,1 C 79 % 1019,9 hPa 0,0 l/m N-NW 4,0 km/h (1 Bft)
12.03.2010 11:00 -0,7 C 80 % 1019,8 hPa 0,0 l/m S-SW 7,0 km/h (2 Bft)
12.03.2010 12:00 0,6 C 75 % 1019,6 hPa 0,0 l/m S-SW 9,1 km/h (2 Bft)
12.03.2010 13:00 1,5 C 70 % 1019,3 hPa 0,0 l/m S 7,2 km/h (2 Bft)
12.03.2010 14:00 1,9 C 64 % 1019,1 hPa 0,0 l/m SO 5,3 km/h (1 Bft)
12.03.2010 15:00 2,1 C 60 % 1019,1 hPa 0,0 l/m S 4,8 km/h (1 Bft)
12.03.2010 16:00 2,1 C 58 % 1019,1 hPa 0,0 l/m S 4,5 km/h (1 Bft)
12.03.2010 17:00 1,4 C 63 % 1019,2 hPa 0,0 l/m S 3,9 km/h (1 Bft)
12.03.2010 18:00 -0,6 C 74 % 1019,9 hPa 0,0 l/m N 0,5 km/h (0 Bft)
12.03.2010 19:00 -2,3 C 82 % 1020,4 hPa 0,0 l/m N 0,1 km/h (0 Bft)
12.03.2010 20:00 -3,4 C 86 % 1021,0 hPa 0,0 l/m N 0,1 km/h (0 Bft)
12.03.2010 21:00 -4,2 C 88 % 1021,7 hPa 0,0 l/m N 0,0 km/h (0 Bft)
12.03.2010 22:00 -4,8 C 88 % 1022,4 hPa 0,0 l/m N 0,0 km/h (0 Bft)
12.03.2010 23:00 -5,4 C 90 % 1022,5 hPa 0,0 l/m N 0,0 km/h (0 Bft)
13.03.2010 00:00 -5,0 C 93 % 1022,4 hPa 0,0 l/m N 1,3 km/h (1 Bft)
13.03.2010 01:00 -4,4 C 92 % 1022,7 hPa 0,0 l/m N 1,2 km/h (1 Bft)
13.03.2010 02:00 -4,2 C 91 % 1022,9 hPa 0,0 l/m N 0,1 km/h (0 Bft)
13.03.2010 03:00 -4,0 C 90 % 1023,1 hPa 0,0 l/m N 1,1 km/h (0 Bft)
13.03.2010 04:00 -3,5 C 92 % 1023,3 hPa 0,0 l/m N 1,9 km/h (1 Bft)
13.03.2010 05:00 -3,1 C 92 % 1023,7 hPa 0,0 l/m S 4,5 km/h (1 Bft)
13.03.2010 06:00 -3,0 C 93 % 1024,1 hPa 0,0 l/m S 6,0 km/h (2 Bft)
13.03.2010 07:00 -2,8 C 94 % 1024,5 hPa 0,0 l/m S-SW 11,2 km/h (2 Bft)
13.03.2010 08:00 -2,5 C 93 % 1025,1 hPa 0,0 l/m S-SW 8,9 km/h (2 Bft)
13.03.2010 09:00 -1,8 C 92 % 1025,6 hPa 0,0 l/m S 9,0 km/h (2 Bft)
13.03.2010 10:00 -0,4 C 87 % 1025,6 hPa 0,0 l/m S 14,6 km/h (3 Bft)
13.03.2010 11:00 1,1 C 82 % 1025,7 hPa 0,0 l/m S-SW 15,2 km/h (3 Bft)
13.03.2010 12:00 2,6 C 76 % 1025,5 hPa 0,0 l/m SW 16,6 km/h (3 Bft)
13.03.2010 13:00 3,6 C 72 % 1025,3 hPa 0,0 l/m SW 18,0 km/h (3 Bft)
13.03.2010 14:00 4,1 C 66 % 1025,0 hPa 0,0 l/m S-SW 17,8 km/h (3 Bft)
13.03.2010 15:00 4,0 C 64 % 1025,1 hPa 0,0 l/m W 13,6 km/h (3 Bft)
13.03.2010 16:00 3,7 C 66 % 1025,3 hPa 0,0 l/m W 10,3 km/h (2 Bft)
13.03.2010 17:00 3,2 C 68 % 1025,8 hPa 0,0 l/m W 9,7 km/h (2 Bft)
13.03.2010 18:00 2,7 C 72 % 1026,4 hPa 0,0 l/m W-NW 7,5 km/h (2 Bft)
13.03.2010 19:00 2,2 C 74 % 1026,8 hPa 0,0 l/m W-NW 4,1 km/h (1 Bft)
13.03.2010 20:00 1,9 C 76 % 1026,8 hPa 0,0 l/m W-NW 5,6 km/h (1 Bft)
13.03.2010 21:00 1,8 C 78 % 1026,8 hPa 0,0 l/m NW 6,7 km/h (2 Bft)
13.03.2010 22:00 1,7 C 79 % 1026,8 hPa 0,0 l/m W-NW 8,6 km/h (2 Bft)
13.03.2010 23:00 1,6 C 80 % 1026,7 hPa 0,0 l/m W-NW 10,3 km/h (2 Bft)
14.03.2010 00:00 1,5 C 78 % 1026,4 hPa 0,0 l/m N-NW 12,8 km/h (3 Bft)
14.03.2010 01:00 1,8 C 72 % 1026,2 hPa 0,0 l/m NW 14,5 km/h (3 Bft)
14.03.2010 02:00 1,8 C 72 % 1026,0 hPa 0,0 l/m W-NW 9,3 km/h (2 Bft)
14.03.2010 03:00 1,8 C 69 % 1025,6 hPa 0,0 l/m W-NW 12,6 km/h (3 Bft)
14.03.2010 04:00 1,7 C 70 % 1025,4 hPa 0,0 l/m W 9,5 km/h (2 Bft)
14.03.2010 05:00 1,5 C 72 % 1025,1 hPa 0,0 l/m W-SW 12,0 km/h (2 Bft)
14.03.2010 06:00 1,3 C 73 % 1025,1 hPa 0,0 l/m W-SW 10,6 km/h (2 Bft)
14.03.2010 07:00 1,2 C 75 % 1025,1 hPa 0,0 l/m W-SW 13,3 km/h (3 Bft)
14.03.2010 08:00 1,3 C 76 % 1025,5 hPa 0,0 l/m W 13,8 km/h (3 Bft)
14.03.2010 09:00 1,3 C 80 % 1025,8 hPa 0,0 l/m W 17,4 km/h (3 Bft)
14.03.2010 10:00 1,4 C 80 % 1025,6 hPa 0,0 l/m W-SW 16,6 km/h (3 Bft)
14.03.2010 11:00 2,0 C 78 % 1025,2 hPa 0,0 l/m W 18,9 km/h (3 Bft)
14.03.2010 12:00 2,3 C 75 % 1025,0 hPa 0,0 l/m W-SW 23,3 km/h (4 Bft)
14.03.2010 13:00 2,4 C 73 % 1024,5 hPa 0,0 l/m W 23,0 km/h (4 Bft)
14.03.2010 14:00 2,7 C 73 % 1024,0 hPa 0,0 l/m W 17,8 km/h (3 Bft)
14.03.2010 15:00 2,9 C 73 % 1023,8 hPa 0,0 l/m W-SW 14,2 km/h (3 Bft)
14.03.2010 16:00 2,5 C 75 % 1023,6 hPa 0,0 l/m W 16,8 km/h (3 Bft)
14.03.2010 17:00 2,2 C 75 % 1023,6 hPa 0,0 l/m W 15,4 km/h (3 Bft)
14.03.2010 18:00 1,7 C 78 % 1024,0 hPa 0,0 l/m W-SW 14,4 km/h (3 Bft)
14.03.2010 19:00 1,6 C 79 % 1024,3 hPa 0,0 l/m W 17,7 km/h (3 Bft)
14.03.2010 20:00 1,3 C 82 % 1024,7 hPa 0,0 l/m SW 17,2 km/h (3 Bft)
14.03.2010 21:00 1,2 C 84 % 1024,7 hPa 0,0 l/m W-SW 13,4 km/h (3 Bft)
14.03.2010 22:00 1,1 C 85 % 1024,8 hPa 0,0 l/m W-SW 14,1 km/h (3 Bft)
14.03.2010 23:00 1,0 C 86 % 1024,7 hPa 0,0 l/m SW 12,2 km/h (2 Bft)
Min-Datum _ 08.03.10 10.03.10 11.03.10 - - 08.03.10
_ Min-Zeit 07:15 14:05 04:15 - - 13:01
Minimum _ -10,9 C 47 % 1011,8 hPa - - 0,0 km/h (0 Bft)
Max-Datum _ 13.03.10 13.03.10 13.03.10 11.03.10 - 09.03.10
_ Max-Zeit 14:35 06:50 20:05 01:10 - 13:00
Maximum _ 4,2 C 94 % 1027,0 hPa 0,8 l/m - 48,3 km/h
O-SO (6 Bft)
Durchschnitt _ -2,6 C 77 % 1019,6 hPa #5,6 l/m O-NO 14,2 km/h (3 Bft)